Time;durP1;ratioP1;P1;durP2;ratioP2;P2;SDS_P1;SDS_P2;PMS_P1;PMS_P2;Temp;Humidity;BMP_temperature;BMP_pressure;BME280_temperature;BME280_humidity;BME280_pressure;Samples;Min_cycle;Max_cycle;Signal;HPM_P1;HPM_P2
2023/10/04 00:00:55;;;;;;;11.70;3.83;;;;;;;16.45;49.79;99742.91;5093884;28;20640;-85
2023/10/04 00:03:22;;;;;;;9.87;3.23;;;;;;;16.45;49.70;99742.06;5093861;28;20168;-85
2023/10/04 00:05:48;;;;;;;9.70;3.77;;;;;;;16.43;49.96;99750.09;5093797;28;20168;-85
2023/10/04 00:08:13;;;;;;;10.00;3.07;;;;;;;16.49;49.96;99739.09;5093526;28;20192;-85
2023/10/04 00:10:39;;;;;;;10.93;3.60;;;;;;;16.51;49.40;99744.28;5075435;28;20190;-85
2023/10/04 00:13:05;;;;;;;12.07;3.10;;;;;;;16.55;49.27;99744.03;5093710;28;20263;-85
2023/10/04 00:15:31;;;;;;;10.17;3.40;;;;;;;16.53;49.17;99739.78;5075838;28;20271;-85
2023/10/04 00:17:57;;;;;;;8.47;3.17;;;;;;;16.49;48.88;99732.97;5094176;28;20167;-85
2023/10/04 00:20:34;;;;;;;13.63;4.13;;;;;;;16.46;48.88;99734.00;5093605;28;20191;-85
2023/10/04 00:23:02;;;;;;;8.63;2.87;;;;;;;16.44;49.17;99730.63;5093569;28;20247;-85
2023/10/04 00:25:28;;;;;;;8.37;3.50;;;;;;;16.41;49.33;99732.63;5093498;28;20188;-85
2023/10/04 00:27:56;;;;;;;13.07;3.80;;;;;;;16.42;49.34;99729.03;5093294;28;20556;-85
2023/10/04 00:30:26;;;;;;;10.27;3.40;;;;;;;16.40;49.58;99723.84;5076000;28;20258;-85
2023/10/04 00:32:53;;;;;;;7.77;3.07;;;;;;;16.36;49.38;99732.09;5093668;28;20552;-85
2023/10/04 00:35:19;;;;;;;9.10;3.67;;;;;;;16.30;50.15;99728.03;5093689;28;20179;-85
2023/10/04 00:37:51;;;;;;;15.93;3.83;;;;;;;16.28;50.46;99723.81;5093599;28;20182;-85
2023/10/04 00:40:21;;;;;;;10.80;2.90;;;;;;;16.24;50.80;99724.97;5093311;28;20178;-85
2023/10/04 00:42:48;;;;;;;13.30;3.60;;;;;;;16.23;50.64;99723.28;5093637;28;20160;-85
2023/10/04 00:45:14;;;;;;;5.50;2.63;;;;;;;16.24;50.36;99722.34;5094113;28;20179;-85
2023/10/04 00:47:48;;;;;;;14.23;4.00;;;;;;;16.26;50.74;99720.44;5093699;28;20249;-85
2023/10/04 00:50:16;;;;;;;11.20;3.80;;;;;;;16.32;50.53;99717.38;5093506;28;20195;-85
2023/10/04 00:52:49;;;;;;;12.57;3.77;;;;;;;16.23;50.80;99720.63;5093450;28;20198;-85
2023/10/04 00:55:20;;;;;;;12.50;3.77;;;;;;;16.21;50.54;99723.38;5093821;28;20195;-85
2023/10/04 00:57:49;;;;;;;10.77;3.73;;;;;;;16.17;50.76;99716.59;5093167;28;20172;-85
2023/10/04 01:00:14;;;;;;;11.43;3.17;;;;;;;16.15;51.00;99723.78;5093400;28;20236;-84
2023/10/04 01:02:40;;;;;;;11.83;3.17;;;;;;;16.14;51.34;99732.66;5093096;28;20262;-85
2023/10/04 01:05:07;;;;;;;12.43;3.33;;;;;;;16.18;51.35;99731.53;5093084;28;20196;-85
2023/10/04 01:07:35;;;;;;;7.23;3.40;;;;;;;16.12;51.85;99723.97;5092985;28;20200;-85
2023/10/04 01:10:01;;;;;;;7.17;3.27;;;;;;;16.12;52.20;99718.69;5092991;28;20512;-84
2023/10/04 01:12:26;;;;;;;9.87;3.93;;;;;;;16.11;52.13;99721.44;5093244;28;20244;-85
2023/10/04 01:14:53;;;;;;;9.13;3.33;;;;;;;16.13;51.70;99719.53;5093272;28;20207;-85
2023/10/04 01:17:20;;;;;;;10.13;3.40;;;;;;;16.08;51.89;99725.13;5092999;28;20191;-84
2023/10/04 01:19:45;;;;;;;10.43;2.90;;;;;;;16.03;52.25;99723.75;5093259;28;20173;-85
2023/10/04 01:22:11;;;;;;;8.90;3.83;;;;;;;16.02;52.14;99720.25;5096933;28;20201;-85
2023/10/04 01:24:41;;;;;;;10.77;3.43;;;;;;;15.96;52.70;99724.13;5096896;28;20761;-84
2023/10/04 01:27:10;;;;;;;6.07;2.90;;;;;;;15.96;52.79;99723.28;5096627;28;20672;-85
2023/10/04 01:29:38;;;;;;;9.27;3.50;;;;;;;15.89;53.01;99717.56;5097044;28;20176;-85
2023/10/04 01:32:05;;;;;;;8.97;3.57;;;;;;;15.91;53.12;99728.03;5096699;28;20190;-85
2023/10/04 01:34:30;;;;;;;14.93;3.40;;;;;;;15.86;53.15;99723.03;5078811;28;20182;-84
2023/10/04 01:36:56;;;;;;;12.03;3.70;;;;;;;15.85;52.81;99723.16;5096942;28;20327;-84
2023/10/04 01:39:22;;;;;;;6.40;2.77;;;;;;;15.86;52.67;99714.25;5097173;28;20231;-85
2023/10/04 01:41:49;;;;;;;8.67;3.17;;;;;;;15.86;52.69;99720.41;5096542;28;20591;-85
2023/10/04 01:44:14;;;;;;;9.03;3.63;;;;;;;15.86;52.80;99722.19;5078920;28;20331;-85
2023/10/04 01:46:40;;;;;;;10.83;3.20;;;;;;;15.82;52.96;99718.91;5078650;28;20278;-85
2023/10/04 01:49:09;;;;;;;9.03;3.27;;;;;;;15.85;52.93;99716.03;5096585;28;20202;-85
2023/10/04 01:51:34;;;;;;;9.87;3.50;;;;;;;15.84;52.69;99718.81;5078486;28;20177;-85
2023/10/04 01:54:06;;;;;;;10.57;3.57;;;;;;;15.80;52.37;99706.75;5096316;28;20653;-85
2023/10/04 01:56:32;;;;;;;9.27;3.43;;;;;;;15.77;52.88;99714.88;5078482;28;20174;-85
2023/10/04 01:58:57;;;;;;;10.47;4.10;;;;;;;15.73;52.83;99705.41;5096214;28;20184;-85
2023/10/04 02:01:22;;;;;;;9.23;3.43;;;;;;;15.70;52.97;99710.91;5096741;28;20204;-85
2023/10/04 02:03:48;;;;;;;11.17;3.33;;;;;;;15.69;53.27;99711.88;5096131;28;20174;-85
2023/10/04 02:06:14;;;;;;;9.07;3.87;;;;;;;15.73;53.40;99705.41;5096098;28;20169;-85
2023/10/04 02:08:39;;;;;;;12.37;3.27;;;;;;;15.78;53.14;99698.88;5096012;28;20266;-85
2023/10/04 02:11:05;;;;;;;8.07;3.27;;;;;;;15.77;52.99;99709.56;5096025;28;20605;-85
2023/10/04 02:13:32;;;;;;;10.90;4.03;;;;;;;15.71;53.26;99710.81;5095936;28;20168;-85
2023/10/04 02:15:59;;;;;;;12.43;3.10;;;;;;;15.65;53.07;99713.00;5078071;28;20180;-85
2023/10/04 02:18:24;;;;;;;9.37;3.90;;;;;;;15.64;53.04;99712.16;5095856;28;20570;-85
2023/10/04 02:20:53;;;;;;;8.00;3.73;;;;;;;15.61;53.17;99708.88;5077940;28;20189;-85
2023/10/04 02:23:19;;;;;;;12.33;3.97;;;;;;;15.54;53.43;99702.28;5095768;28;20612;-85
2023/10/04 02:25:45;;;;;;;8.43;2.63;;;;;;;15.51;53.71;99705.13;5095705;28;20177;-85
2023/10/04 02:28:22;;;;;;;8.77;3.50;;;;;;;15.53;53.54;99712.00;5096289;28;20229;-85
2023/10/04 02:30:48;;;;;;;8.20;3.10;;;;;;;15.48;53.67;99706.16;5096226;28;20173;-85
2023/10/04 02:33:14;;;;;;;9.33;3.40;;;;;;;15.48;53.92;99705.31;5077050;28;20173;-85
2023/10/04 02:35:44;;;;;;;6.93;3.40;;;;;;;15.44;53.84;99709.91;5095525;28;20179;-85
2023/10/04 02:38:19;;;;;;;11.73;4.07;;;;;;;15.43;54.17;99708.22;5095816;28;20648;-85
2023/10/04 02:40:46;;;;;;;8.47;3.80;;;;;;;15.39;54.30;99707.53;5095769;28;20161;-85
2023/10/04 02:43:11;;;;;;;12.10;4.47;;;;;;;15.36;54.33;99713.03;5095931;28;20177;-85
2023/10/04 02:45:37;;;;;;;7.67;3.37;;;;;;;15.31;54.83;99709.81;5095321;28;20607;-85
2023/10/04 02:48:04;;;;;;;11.13;3.73;;;;;;;15.29;54.40;99710.88;5095466;28;20288;-85
2023/10/04 02:50:29;;;;;;;7.87;3.70;;;;;;;15.30;54.08;99708.13;5077383;28;20534;-85
2023/10/04 02:52:56;;;;;;;14.00;4.77;;;;;;;15.27;54.19;99713.63;5095154;28;20173;-85
2023/10/04 02:55:24;;;;;;;9.67;3.70;;;;;;;15.18;54.35;99710.69;5077288;28;20180;-84
2023/10/04 02:57:51;;;;;;;11.43;3.37;;;;;;;15.18;53.86;99711.53;5095083;28;20180;-85
2023/10/04 03:00:19;;;;;;;8.17;3.33;;;;;;;15.13;53.28;99710.97;5095276;28;20178;-85
2023/10/04 03:02:53;;;;;;;8.97;3.93;;;;;;;15.06;53.79;99714.94;5077491;28;20168;-85
2023/10/04 03:05:19;;;;;;;10.03;4.00;;;;;;;15.08;53.72;99713.06;5077227;28;20169;-84
2023/10/04 03:07:52;;;;;;;10.83;3.67;;;;;;;15.11;53.73;99712.00;5095386;28;20279;-85
2023/10/04 03:10:24;;;;;;;8.53;3.70;;;;;;;15.05;53.79;99715.03;5094909;28;20166;-85
2023/10/04 03:12:56;;;;;;;7.73;3.47;;;;;;;14.97;54.34;99715.50;5095129;28;20619;-84
2023/10/04 03:15:23;;;;;;;9.63;3.57;;;;;;;14.96;54.22;99703.25;5094985;28;20176;-84
2023/10/04 03:17:53;;;;;;;6.40;2.67;;;;;;;15.06;53.81;99706.16;5095004;28;20633;-84
2023/10/04 03:20:20;;;;;;;10.97;3.47;;;;;;;15.03;54.03;99707.22;5094671;28;20257;-84
2023/10/04 03:22:55;;;;;;;10.73;4.53;;;;;;;15.00;54.23;99709.19;5076803;28;20253;-84
2023/10/04 03:25:24;;;;;;;8.37;3.47;;;;;;;15.00;54.03;99704.75;5094909;28;20170;-84
2023/10/04 03:27:49;;;;;;;10.03;3.83;;;;;;;14.90;54.61;99702.75;5094343;28;20243;-84
2023/10/04 03:30:15;;;;;;;9.17;3.43;;;;;;;14.81;54.82;99704.16;5076945;28;20207;-84
2023/10/04 03:32:49;;;;;;;9.20;4.03;;;;;;;14.78;55.40;99699.06;5076589;28;20626;-84
2023/10/04 03:35:15;;;;;;;10.47;3.77;;;;;;;14.76;55.72;99700.97;5094402;28;20195;-84
2023/10/04 03:37:49;;;;;;;8.23;3.40;;;;;;;14.75;55.34;99700.09;5094347;28;20247;-84
2023/10/04 03:40:17;;;;;;;7.63;3.17;;;;;;;14.71;55.37;99711.81;5094603;28;20152;-85
2023/10/04 03:42:43;;;;;;;10.50;3.10;;;;;;;14.67;55.40;99706.81;5094347;28;20628;-85
2023/10/04 03:45:12;;;;;;;9.33;3.33;;;;;;;14.66;55.66;99699.81;5093234;28;20183;-84
2023/10/04 03:47:39;;;;;;;6.30;3.00;;;;;;;14.64;55.32;99707.84;5094075;28;20257;-85
2023/10/04 03:50:09;;;;;;;10.40;3.90;;;;;;;14.64;55.30;99704.34;5076260;28;20241;-85
2023/10/04 03:52:34;;;;;;;9.10;3.33;;;;;;;14.65;54.95;99703.38;5094383;28;20165;-85
2023/10/04 03:55:00;;;;;;;11.73;3.50;;;;;;;14.63;54.95;99703.50;5094023;28;20199;-85
2023/10/04 03:57:25;;;;;;;9.60;4.03;;;;;;;14.62;54.67;99698.31;5093923;28;20618;-85
2023/10/04 03:59:51;;;;;;;11.77;3.50;;;;;;;14.62;55.02;99696.50;5094237;28;20282;-84
2023/10/04 04:02:16;;;;;;;10.17;3.23;;;;;;;14.58;55.41;99691.53;5076013;28;20172;-84
2023/10/04 04:04:42;;;;;;;8.17;3.80;;;;;;;14.58;55.01;99697.66;5076366;28;20176;-85
2023/10/04 04:07:08;;;;;;;10.87;3.73;;;;;;;14.61;54.91;99691.34;5093758;28;20606;-84
2023/10/04 04:09:33;;;;;;;8.60;3.77;;;;;;;14.58;54.84;99695.00;5075936;28;20191;-84
2023/10/04 04:11:59;;;;;;;11.20;3.40;;;;;;;14.56;55.03;99693.41;5076206;28;20265;-84
2023/10/04 04:14:25;;;;;;;8.00;3.13;;;;;;;14.53;55.01;99693.59;5093686;28;20207;-84
2023/10/04 04:16:51;;;;;;;9.03;4.43;;;;;;;14.51;55.33;99691.06;5094179;28;20204;-85
2023/10/04 04:19:19;;;;;;;8.97;3.57;;;;;;;14.52;55.11;99698.00;5093600;28;20534;-84
2023/10/04 04:21:44;;;;;;;13.77;4.10;;;;;;;14.47;55.27;99697.44;5075767;28;20212;-84
2023/10/04 04:24:10;;;;;;;10.40;3.20;;;;;;;14.45;55.43;99696.69;5093563;28;20210;-84
2023/10/04 04:26:35;;;;;;;9.77;3.60;;;;;;;14.44;55.67;99710.81;5075718;28;20250;-84
2023/10/04 04:29:01;;;;;;;10.57;3.77;;;;;;;14.40;56.04;99709.28;5075647;28;20208;-85
2023/10/04 04:31:26;;;;;;;11.13;3.60;;;;;;;14.38;56.04;99705.06;5093470;28;20176;-84
2023/10/04 04:33:53;;;;;;;8.50;3.40;;;;;;;14.34;55.96;99703.53;5093717;28;20180;-84
2023/10/04 04:36:25;;;;;;;9.40;3.63;;;;;;;14.32;56.09;99711.53;5075612;28;20181;-84
2023/10/04 04:38:52;;;;;;;8.53;3.30;;;;;;;14.28;56.22;99720.50;5093397;28;20224;-84
2023/10/04 04:41:21;;;;;;;14.50;3.60;;;;;;;14.29;56.10;99718.72;5093580;28;20636;-84
2023/10/04 04:43:47;;;;;;;8.80;3.17;;;;;;;14.34;55.98;99711.44;5093610;28;20534;-84
2023/10/04 04:46:13;;;;;;;8.37;2.80;;;;;;;14.33;55.94;99713.25;5093263;28;20697;-84
2023/10/04 04:48:40;;;;;;;8.57;3.33;;;;;;;14.36;55.50;99715.69;5093747;28;20196;-84
2023/10/04 04:53:35;;;;;;;7.67;3.20;;;;;;;14.40;55.38;99719.00;5093856;28;20172;-84
2023/10/04 04:56:01;;;;;;;9.03;2.90;;;;;;;14.42;55.52;99722.38;5095419;28;20176;-84
2023/10/04 04:58:28;;;;;;;10.07;3.80;;;;;;;14.39;56.10;99717.28;5097374;28;20598;-85
2023/10/04 05:01:02;;;;;;;12.47;4.10;;;;;;;14.45;56.13;99723.06;5097380;28;20169;-85
2023/10/04 05:03:28;;;;;;;11.53;3.37;;;;;;;14.54;56.09;99721.69;5097362;28;20156;-84
2023/10/04 05:05:57;;;;;;;11.63;3.47;;;;;;;14.55;56.15;99723.34;5097496;28;20180;-84
2023/10/04 05:08:25;;;;;;;10.03;3.67;;;;;;;14.48;56.11;99722.03;5079241;28;20211;-84
2023/10/04 05:10:50;;;;;;;7.67;3.20;;;;;;;14.57;55.62;99734.69;5097153;28;20200;-84
2023/10/04 05:13:18;;;;;;;9.30;3.40;;;;;;;14.58;55.55;99731.09;5079273;28;20207;-84
2023/10/04 05:15:45;;;;;;;10.83;4.20;;;;;;;14.58;55.76;99739.00;5079218;28;20176;-84
2023/10/04 05:18:11;;;;;;;8.70;3.80;;;;;;;14.62;55.09;99732.63;5097290;28;20191;-84
2023/10/04 05:20:38;;;;;;;18.03;3.67;;;;;;;14.70;54.40;99733.03;5097281;28;20596;-85
2023/10/04 05:23:04;;;;;;;11.07;3.73;;;;;;;14.94;54.12;99734.16;5097228;28;20192;-85
2023/10/04 05:25:30;;;;;;;10.03;3.90;;;;;;;15.18;53.51;99719.47;5079049;28;20266;-85
2023/10/04 05:28:09;;;;;;;9.43;3.60;;;;;;;15.39;52.47;99730.47;5097439;28;20689;-85
2023/10/04 05:30:35;;;;;;;12.03;3.60;;;;;;;15.46;51.74;99734.44;5096809;28;20169;-84
2023/10/04 05:33:01;;;;;;;11.20;4.00;;;;;;;15.55;51.69;99733.88;5096738;28;20619;-85
2023/10/04 05:35:26;;;;;;;10.67;3.13;;;;;;;15.66;51.55;99741.97;5096753;28;20177;-85
2023/10/04 05:37:52;;;;;;;15.53;3.53;;;;;;;15.88;51.42;99746.72;5078789;28;20643;-85
2023/10/04 05:40:25;;;;;;;9.67;3.67;;;;;;;16.20;50.70;99740.19;5096857;28;20170;-85
2023/10/04 05:42:51;;;;;;;11.73;4.03;;;;;;;16.65;49.73;99740.75;5097162;28;20631;-84
2023/10/04 05:45:16;;;;;;;15.50;4.47;;;;;;;17.06;48.78;99738.75;5078663;28;20179;-85
2023/10/04 05:47:43;;;;;;;9.23;3.73;;;;;;;17.41;47.16;99733.63;5096644;28;20203;-85
2023/10/04 05:50:17;;;;;;;7.60;3.40;;;;;;;17.75;46.45;99736.44;5078576;28;20273;-85
2023/10/04 05:52:43;;;;;;;9.53;3.73;;;;;;;17.87;45.87;99741.81;5096690;28;20252;-84
2023/10/04 05:55:10;;;;;;;12.07;4.30;;;;;;;18.22;45.17;99742.72;5096325;28;20220;-84
2023/10/04 05:57:35;;;;;;;10.83;3.80;;;;;;;18.49;44.71;99745.16;5096529;28;20172;-85
2023/10/04 06:02:58;;;;;;;8.33;3.53;;;;;;;19.35;43.90;99743.72;5096827;28;20184;-85
2023/10/04 06:05:27;;;;;;;11.27;3.73;;;;;;;20.36;42.00;99739.97;5096687;28;20164;-85
2023/10/04 06:07:54;;;;;;;9.10;3.83;;;;;;;21.49;39.08;99732.81;5094823;28;20300;-85
2023/10/04 06:10:20;;;;;;;8.93;3.47;;;;;;;22.46;37.23;99740.88;5096312;28;20178;-85
2023/10/04 06:12:51;;;;;;;11.97;4.10;;;;;;;23.72;35.51;99736.91;5095976;28;20173;-84
2023/10/04 06:15:17;;;;;;;11.97;3.87;;;;;;;25.09;33.52;99729.34;5078130;28;20180;-84
2023/10/04 06:17:45;;;;;;;9.57;2.97;;;;;;;26.26;31.54;99723.97;5095850;28;20179;-84
2023/10/04 06:22:53;;;;;;;14.33;3.93;;;;;;;27.43;30.03;99727.97;5096410;28;20635;-85
2023/10/04 06:25:21;;;;;;;12.47;3.90;;;;;;;27.79;29.19;99725.63;5077908;28;20262;-85
2023/10/04 06:27:50;;;;;;;7.63;3.63;;;;;;;28.16;29.41;99728.47;5095536;28;20295;-85
2023/10/04 06:30:22;;;;;;;9.73;3.97;;;;;;;28.76;29.18;99723.16;5096181;28;20173;-85
2023/10/04 06:32:52;;;;;;;12.03;4.03;;;;;;;29.36;28.71;99722.22;5096149;28;20156;-85
2023/10/04 06:35:22;;;;;;;9.10;3.47;;;;;;;29.82;27.42;99724.53;5077728;28;20176;-85
2023/10/04 06:37:52;;;;;;;8.50;3.97;;;;;;;30.07;26.82;99726.91;5077741;28;20610;-86
2023/10/04 06:40:22;;;;;;;10.20;4.25;;;;;;;29.82;27.12;99732.66;5095424;28;20630;-86
2023/10/04 06:42:49;;;;;;;10.67;4.00;;;;;;;29.59;28.24;99729.19;5095728;28;20229;-86
2023/10/04 06:45:18;;;;;;;9.15;3.85;;;;;;;29.97;28.02;99723.66;5077545;28;20180;-86
2023/10/04 06:47:45;;;;;;;12.80;4.28;;;;;;;30.08;27.53;99725.88;5077668;28;20612;-86
2023/10/04 06:50:15;;;;;;;7.20;3.63;;;;;;;30.19;27.38;99715.38;5095295;28;20176;-86
2023/10/04 06:52:51;;;;;;;9.57;4.05;;;;;;;30.21;27.02;99715.22;5095211;28;20661;-87
2023/10/04 06:55:18;;;;;;;14.82;4.30;;;;;;;30.18;27.53;99702.91;5095687;28;20622;-87
2023/10/04 06:57:44;;;;;;;8.98;3.80;;;;;;;30.19;27.21;99709.97;5095101;28;20177;-87
2023/10/04 07:00:15;;;;;;;10.50;4.38;;;;;;;30.22;27.02;99711.47;5095366;28;20175;-87
2023/10/04 07:02:59;;;;;;;10.90;4.10;;;;;;;30.20;27.83;99713.53;5078032;28;20186;-87
2023/10/04 07:05:27;;;;;;;7.50;3.83;;;;;;;30.31;27.12;99713.03;5078325;28;20272;-87
2023/10/04 07:07:57;;;;;;;10.00;3.80;;;;;;;30.47;26.48;99712.81;5095090;28;20210;-87
2023/10/04 07:10:27;;;;;;;7.95;3.80;;;;;;;30.11;26.51;99722.81;5076983;28;20180;-87
2023/10/04 07:12:54;;;;;;;12.95;4.13;;;;;;;29.61;26.86;99718.22;5077260;28;20202;-87
2023/10/04 07:15:21;;;;;;;9.77;4.05;;;;;;;29.14;28.28;99722.09;5077191;28;20191;-87
2023/10/04 07:17:49;;;;;;;9.15;3.55;;;;;;;29.01;28.54;99726.47;5076962;28;20173;-88
2023/10/04 07:20:19;;;;;;;12.43;4.60;;;;;;;28.97;28.06;99723.28;5077125;28;20621;-87
2023/10/04 07:22:47;;;;;;;7.97;3.75;;;;;;;28.85;28.59;99715.81;5094940;28;20176;-87
2023/10/04 07:25:14;;;;;;;9.90;3.80;;;;;;;28.76;29.00;99714.22;5094572;28;20184;-87
2023/10/04 07:27:44;;;;;;;15.13;3.72;;;;;;;28.53;29.38;99715.06;5076991;28;20215;-88
2023/10/04 07:30:13;;;;;;;8.63;3.60;;;;;;;28.35;29.35;99709.16;5077554;28;20215;-87
2023/10/04 07:32:43;;;;;;;10.05;3.45;;;;;;;28.20;29.61;99712.78;5076902;28;20271;-87
2023/10/04 07:35:12;;;;;;;9.48;3.85;;;;;;;27.89;30.15;99710.06;5077404;28;20164;-87
2023/10/04 07:37:37;;;;;;;8.98;3.78;;;;;;;27.98;30.27;99704.47;5076515;28;20200;-87
2023/10/04 07:40:09;;;;;;;7.22;3.75;;;;;;;28.05;29.96;99707.31;5076470;28;20199;-87
2023/10/04 07:42:35;;;;;;;8.38;3.17;;;;;;;28.03;29.51;99709.34;5076705;28;20176;-87
2023/10/04 07:45:02;;;;;;;9.05;3.58;;;;;;;27.91;30.07;99710.72;5094732;28;20259;-87
2023/10/04 07:47:27;;;;;;;7.72;2.92;;;;;;;27.90;30.51;99707.22;5076490;28;20352;-87
2023/10/04 07:49:53;;;;;;;10.88;3.58;;;;;;;27.78;29.90;99713.16;5076616;28;20256;-87
2023/10/04 07:52:19;;;;;;;7.53;3.67;;;;;;;27.69;30.69;99711.53;5076195;28;20262;-87
2023/10/04 07:54:45;;;;;;;8.77;2.90;;;;;;;27.71;30.63;99699.56;5094050;28;20231;-89
2023/10/04 07:57:10;;;;;;;7.50;3.20;;;;;;;27.78;30.82;99705.06;5076503;28;20211;-87
2023/10/04 07:59:37;;;;;;;8.88;3.55;;;;;;;27.82;30.20;99701.88;5076675;28;20613;-87
2023/10/04 08:02:03;;;;;;;12.20;3.17;;;;;;;27.64;30.13;99698.59;5076380;28;20608;-88
2023/10/04 08:04:29;;;;;;;8.52;3.40;;;;;;;27.52;30.07;99688.38;5076293;28;20628;-87
2023/10/04 08:06:55;;;;;;;8.95;3.40;;;;;;;27.55;30.66;99693.41;5093814;28;20180;-87
2023/10/04 08:09:21;;;;;;;8.32;3.47;;;;;;;27.63;29.85;99690.69;5093714;28;20563;-87
2023/10/04 08:11:48;;;;;;;9.65;3.30;;;;;;;27.54;30.24;99691.75;5093783;28;20175;-87
2023/10/04 08:14:13;;;;;;;12.45;4.22;;;;;;;27.56;30.80;99695.09;5093739;28;20701;-86
2023/10/04 08:16:39;;;;;;;6.72;2.53;;;;;;;27.52;30.62;99683.81;5075887;28;20679;-87
2023/10/04 08:19:05;;;;;;;7.50;3.20;;;;;;;27.44;31.11;99690.09;5076119;28;20267;-87
2023/10/04 08:21:30;;;;;;;9.05;3.05;;;;;;;27.42;30.84;99688.59;5093916;28;20260;-87
2023/10/04 08:23:57;;;;;;;12.32;3.40;;;;;;;27.64;30.37;99686.97;5075972;28;20249;-87
2023/10/04 08:26:23;;;;;;;8.70;2.97;;;;;;;27.85;30.68;99674.56;5093717;28;20598;-88
2023/10/04 08:28:49;;;;;;;9.52;3.30;;;;;;;28.13;30.28;99674.06;5093502;28;20246;-87
2023/10/04 08:31:16;;;;;;;10.32;3.72;;;;;;;28.22;29.40;99676.56;5092888;28;20176;-87
2023/10/04 08:33:43;;;;;;;7.60;3.10;;;;;;;28.04;30.17;99668.72;5093948;28;20215;-89
2023/10/04 08:36:14;;;;;;;8.73;2.55;;;;;;;28.14;29.45;99667.66;5093683;28;20184;-87
2023/10/04 08:38:41;;;;;;;13.20;3.63;;;;;;;28.07;30.25;99662.16;5093947;28;20188;-87
2023/10/04 08:41:07;;;;;;;5.88;3.08;;;;;;;28.34;29.32;99660.75;5093354;28;20191;-88
2023/10/04 08:43:32;;;;;;;8.43;3.22;;;;;;;28.51;29.46;99648.84;5093310;28;20180;-87
2023/10/04 08:45:58;;;;;;;6.57;3.33;;;;;;;28.54;29.34;99643.88;5075804;28;20543;-87
2023/10/04 08:48:26;;;;;;;12.32;5.55;;;;;;;28.38;29.10;99654.81;5075664;28;20212;-87
2023/10/04 08:51:03;;;;;;;11.73;3.60;;;;;;;28.38;29.39;99645.91;5075406;28;20181;-88
2023/10/04 08:53:52;;;;;;;10.40;4.35;;;;;;;28.56;29.42;99641.84;5093574;28;20172;-88
2023/10/04 08:56:18;;;;;;;10.15;4.43;;;;;;;28.71;28.64;99644.63;5075460;28;20187;-88
2023/10/04 08:58:44;;;;;;;8.15;4.63;;;;;;;28.81;29.09;99642.47;5093157;28;20168;-87
2023/10/04 09:01:13;;;;;;;13.73;3.35;;;;;;;28.89;28.87;99644.25;5093443;28;20176;-88
2023/10/04 09:03:43;;;;;;;18.48;8.82;;;;;;;28.95;28.96;99644.38;5093166;28;20168;-87
2023/10/04 09:06:14;;;;;;;7.20;3.40;;;;;;;29.28;28.42;99639.44;5075617;28;20179;-88
2023/10/04 09:08:40;;;;;;;8.52;3.53;;;;;;;29.47;28.17;99638.84;5076155;28;20200;-87
2023/10/04 09:11:10;;;;;;;7.72;3.00;;;;;;;29.67;28.42;99648.03;5093312;28;20245;-87
2023/10/04 09:13:47;;;;;;;7.20;2.75;;;;;;;29.67;27.67;99633.69;5093043;28;20183;-87
2023/10/04 09:16:30;;;;;;;7.35;3.13;;;;;;;29.75;27.53;99639.81;5093329;28;20214;-88
2023/10/04 09:19:17;;;;;;;5.65;2.90;;;;;;;29.86;27.44;99629.56;5076065;28;20169;-87
2023/10/04 09:21:43;;;;;;;10.07;3.47;;;;;;;29.96;27.38;99632.78;5093244;28;20159;-87
2023/10/04 09:24:10;;;;;;;7.20;3.35;;;;;;;30.22;27.08;99631.16;5092947;28;20176;-88
2023/10/04 09:26:49;;;;;;;11.27;3.83;;;;;;;30.20;26.51;99626.97;5092972;28;20196;-87
2023/10/04 09:29:27;;;;;;;7.25;3.63;;;;;;;30.00;27.36;99637.63;5093015;28;20204;-88
2023/10/04 09:31:55;;;;;;;9.57;3.10;;;;;;;29.99;27.68;99624.28;5092909;28;20236;-88
2023/10/04 09:34:23;;;;;;;11.27;3.75;;;;;;;30.17;26.99;99628.19;5093139;28;20177;-87
2023/10/04 09:36:51;;;;;;;6.28;2.50;;;;;;;30.24;27.02;99626.38;5092841;28;20260;-87
2023/10/04 09:39:23;;;;;;;7.35;2.97;;;;;;;30.40;26.57;99623.44;5093088;28;20218;-87
2023/10/04 09:41:50;;;;;;;10.27;3.60;;;;;;;30.29;26.44;99625.81;5094789;28;20557;-87
2023/10/04 09:44:29;;;;;;;14.95;4.15;;;;;;;30.37;26.41;99618.41;5096558;28;20617;-87
2023/10/04 09:47:01;;;;;;;6.93;2.85;;;;;;;30.65;26.13;99609.47;5096797;28;20183;-88
2023/10/04 09:49:35;;;;;;;5.35;2.60;;;;;;;30.68;26.08;99609.09;5096717;28;20223;-87
2023/10/04 09:52:06;;;;;;;7.57;2.72;;;;;;;30.70;25.96;99607.84;5096752;28;20164;-88
2023/10/04 09:54:33;;;;;;;14.43;3.20;;;;;;;30.80;24.87;99608.34;5096668;28;20168;-87
2023/10/04 09:57:03;;;;;;;7.10;2.45;;;;;;;30.94;25.71;99598.47;5096272;28;20177;-87
2023/10/04 09:59:29;;;;;;;8.05;3.30;;;;;;;30.94;25.91;99596.59;5078759;28;20182;-88
2023/10/04 10:01:57;;;;;;;9.88;3.70;;;;;;;31.11;25.85;99594.38;5096789;28;20187;-88
2023/10/04 10:04:30;;;;;;;6.80;3.10;;;;;;;31.11;25.62;99604.38;5096145;28;20264;-87
2023/10/04 10:07:11;;;;;;;9.00;3.45;;;;;;;31.06;26.11;99602.25;5096112;28;20175;-87
2023/10/04 10:09:54;;;;;;;7.95;2.90;;;;;;;30.74;25.94;99601.00;5096435;28;20164;-86
2023/10/04 10:12:22;;;;;;;7.80;3.10;;;;;;;30.87;25.30;99587.53;5078252;28;20681;-87
2023/10/04 10:14:48;;;;;;;7.15;3.10;;;;;;;30.99;25.59;99594.13;5096151;28;20176;-87
2023/10/04 10:17:17;;;;;;;9.95;3.40;;;;;;;31.08;25.69;99588.53;5078687;28;20172;-87
2023/10/04 10:19:45;;;;;;;8.63;3.40;;;;;;;31.12;25.56;99593.34;5078315;28;20180;-87
2023/10/04 10:22:11;;;;;;;10.35;3.58;;;;;;;31.20;25.74;99593.19;5078544;28;20599;-88
2023/10/04 10:24:55;;;;;;;9.85;3.60;;;;;;;31.33;25.75;99592.38;5078553;28;20701;-87
2023/10/04 10:27:23;;;;;;;5.88;2.55;;;;;;;31.66;25.52;99577.09;5078069;28;20689;-87
2023/10/04 10:29:50;;;;;;;7.28;2.55;;;;;;;31.83;25.51;99581.09;5102012;28;20184;-87
2023/10/04 10:32:20;;;;;;;10.32;4.22;;;;;;;31.97;25.00;99574.63;5102564;28;20275;-88
2023/10/04 10:34:47;;;;;;;8.77;3.67;;;;;;;32.15;24.90;99582.22;5078348;28;20183;-87
2023/10/04 10:37:18;;;;;;;10.38;3.22;;;;;;;31.96;24.75;99566.72;5083697;28;20187;-87
2023/10/04 10:39:48;;;;;;;7.95;3.20;;;;;;;32.05;24.80;99566.34;5089226;28;20614;-87
2023/10/04 10:42:15;;;;;;;7.25;2.95;;;;;;;32.01;24.27;99562.38;5086231;28;20191;-88
2023/10/04 10:44:41;;;;;;;10.23;3.33;;;;;;;31.80;24.49;99562.53;5087539;28;20187;-86
2023/10/04 10:47:19;;;;;;;8.30;3.58;;;;;;;31.86;25.14;99559.00;5079577;28;20209;-88
2023/10/04 10:49:51;;;;;;;9.68;3.20;;;;;;;31.96;24.17;99556.72;5106107;28;20182;-88
2023/10/04 10:52:23;;;;;;;8.68;3.17;;;;;;;32.30;24.53;99547.56;5115635;28;20207;-87
2023/10/04 10:54:51;;;;;;;6.82;3.22;;;;;;;32.39;24.06;99540.84;5115034;28;20175;-89
2023/10/04 10:57:21;;;;;;;8.50;3.33;;;;;;;32.17;23.85;99540.28;5115430;28;20187;-88
2023/10/04 10:59:56;;;;;;;7.85;3.78;;;;;;;32.44;24.71;99537.53;5097851;28;20172;-87
2023/10/04 11:02:24;;;;;;;9.77;3.03;;;;;;;32.65;23.66;99532.69;5115787;28;20159;-88
2023/10/04 11:04:52;;;;;;;9.80;3.25;;;;;;;32.83;24.11;99536.63;5115283;28;20188;-88
2023/10/04 11:07:21;;;;;;;8.20;3.38;;;;;;;33.00;23.19;99529.66;5097223;28;20734;-88
2023/10/04 11:09:55;;;;;;;11.95;3.70;;;;;;;33.07;22.79;99525.91;5097312;28;20232;-88
2023/10/04 11:12:22;;;;;;;9.38;2.90;;;;;;;33.18;22.66;99525.22;5076958;28;20241;-88
2023/10/04 11:14:51;;;;;;;9.57;3.67;;;;;;;33.26;22.37;99524.97;5095086;28;20169;-88
2023/10/04 11:17:17;;;;;;;7.43;3.30;;;;;;;33.45;22.95;99527.81;5085484;28;20186;-87
2023/10/04 11:19:44;;;;;;;8.00;3.10;;;;;;;33.37;22.93;99518.03;5097122;28;20171;-87
2023/10/04 11:22:14;;;;;;;8.48;3.70;;;;;;;33.54;22.84;99523.78;5114690;28;20172;-88
2023/10/04 11:24:41;;;;;;;8.45;3.20;;;;;;;33.49;22.61;99523.59;5097061;28;20171;-88
2023/10/04 11:27:16;;;;;;;7.45;3.58;;;;;;;33.48;22.49;99516.50;5114571;28;20202;-87
2023/10/04 11:29:43;;;;;;;10.93;3.72;;;;;;;33.35;22.86;99514.69;5115467;28;20170;-88
2023/10/04 11:32:11;;;;;;;9.23;3.20;;;;;;;33.60;22.79;99512.03;5096529;28;20176;-87
2023/10/04 11:34:37;;;;;;;8.93;3.60;;;;;;;33.51;22.75;99507.91;5115345;28;20180;-88
2023/10/04 11:37:04;;;;;;;9.73;3.55;;;;;;;33.39;23.10;99508.59;5114727;28;20179;-88
2023/10/04 11:39:36;;;;;;;11.32;3.65;;;;;;;33.51;23.08;99506.03;5115005;28;20182;-88
2023/10/04 11:42:05;;;;;;;8.18;3.10;;;;;;;33.60;22.33;99507.44;5114959;28;20621;-87